• Join FlightAware (Why Join?)
  • Login
  • US Flag 
03:26PM EDT


 

Airport Tracker/Info


-or-


 

Live Flight TrackerFlight Track Log ✈ UAL3776 ✈ 07-Apr-2013 ✈ KCLT - KIAD

Flight Track Log - Related Links

Times and Time Zones

All times are in EDT time to prevent confusion due to time zone crossing. See the UAL3776 flight status page for this flight to view local times or setup timezone preferences in your user account.

Time Position Orientation Groundspeed Altitude Reporting Facility
EDT Latitude Longitude Course Direction KTS MPH feet Rate Location/Type
07:51PM 35.1928 -80.9336 174° South 152 175 1,800  Level FAA TRACON SMA TRACON (SMA)
07:52PM 35.1789 -80.9319 174° South 158 182 2,400 1,500 Climbing FAA TRACON SMA TRACON (SMA)
07:52PM 35.1603 -80.9300 175° South 188 216 2,800 1,320 Climbing FAA TRACON SMA TRACON (SMA)
07:52PM 35.1414 -80.9161 149° Southeast 246 283 3,300 1,800 Climbing FAA TRACON SMA TRACON (SMA)
07:53PM 35.1253 -80.8978 137° Southeast 267 307 4,000 2,820 Climbing FAA TRACON SMA TRACON (SMA)
07:53PM 35.1047 -80.8739 136° Southeast 263 303 5,200 3,120 Climbing FAA TRACON SMA TRACON (SMA)
07:53PM 35.0947 -80.8481 115° Southeast 285 328 6,100 3,060 Climbing FAA TRACON SMA TRACON (SMA)
07:54PM 35.0956 -80.8108 88° East 285 328 7,300 2,700 Climbing FAA TRACON SMA TRACON (SMA)
07:54PM 35.0983 -80.7797 84° East 302 348 7,900 1,020 Climbing FAA TRACON SMA TRACON (SMA)
07:54PM 35.1014 -80.7483 83° East 306 352 8,000 300 Climbing FAA TRACON SMA TRACON (SMA)
07:55PM 35.1094 -80.7133 74° East 315 362 8,100 1,500 Climbing FAA TRACON SMA TRACON (SMA)
07:55PM 35.1250 -80.6842 57° Northeast 305 351 9,000 2,760 Climbing FAA TRACON SMA TRACON (SMA)
07:55PM 35.1400 -80.6578 55° Northeast 309 356 10,000 2,400 Climbing FAA TRACON SMA TRACON (SMA)
07:56PM 35.1592 -80.6247 55° Northeast 312 359 10,600 1,200 Climbing FAA TRACON SMA TRACON (SMA)
07:56PM 35.1761 -80.5953 55° Northeast 341 392 10,800 840 Climbing FAA TRACON SMA TRACON (SMA)
07:56PM 35.1964 -80.5589 56° Northeast 373 429 11,200 1,800 Climbing FAA TRACON SMA TRACON (SMA)
07:57PM 35.2183 -80.5236 53° Northeast 384 442 12,000 2,220 Climbing FAA TRACON SMA TRACON (SMA)
07:57PM 35.2369 -80.4911 55° Northeast 382 440 12,700 1,920 Climbing FAA TRACON SMA TRACON (SMA)
07:57PM 35.2558 -80.4581 55° Northeast 385 443 13,300 2,280 Climbing FAA TRACON SMA TRACON (SMA)
07:58PM 35.2800 -80.4164 55° Northeast 388 447 14,200 2,400 Climbing FAA TRACON SMA TRACON (SMA)
07:58PM 35.2992 -80.3828 55° Northeast 390 449 14,900 1,920 Climbing FAA TRACON SMA TRACON (SMA)
07:58PM 35.3189 -80.3489 54° Northeast 394 453 15,500 1,800 Climbing FAA TRACON SMA TRACON (SMA)
08:00PM 35.4264 -80.1522 56° Northeast 422 486 18,600 1,260 Climbing Washington Center
08:01PM 35.4625 -80.0292 70° East 422 486 19,000 360 Climbing Washington Center
08:02PM 35.4992 -79.8781 73° East 435 501 19,400 900 Climbing Washington Center
08:03PM 35.5400 -79.7247 72° East 450 518 20,800 1,500 Climbing Washington Center
08:04PM 35.5833 -79.5558 72° East 469 540 22,500 1,500 Climbing Washington Center
08:05PM 35.6233 -79.4197 70° East 476 548 23,900 1,380 Climbing Washington Center
08:06PM 35.6758 -79.2767 66° East 466 536 25,300 1,320 Climbing Washington Center
08:07PM 35.7647 -79.1631 46° Northeast 456 525 26,600 840 Climbing Washington Center
08:08PM 35.8800 -79.0783 31° Northeast 448 516 27,000 180 Climbing Washington Center
08:09PM 35.9972 -78.9939 30° Northeast 464 534 27,000  Level Washington Center
08:10PM 36.1164 -78.9039 31° Northeast 490 564 27,000  Level Washington Center
08:11PM 36.2336 -78.8161 31° Northeast 495 570 27,000  Level Washington Center
08:12PM 36.3508 -78.7306 30° Northeast 495 570 27,000  Level Washington Center
08:13PM 36.4697 -78.6425 31° Northeast 495 570 27,000  Level Washington Center
08:14PM 36.5869 -78.5539 31° Northeast 495 570 27,000  Level Washington Center
08:15PM 36.7144 -78.4525 33° Northeast 495 570 27,000  Level Washington Center
08:16PM 36.8292 -78.3683 30° Northeast 489 563 27,000  Level Washington Center
08:17PM 36.9439 -78.2789 32° Northeast 484 557 27,000  Level Washington Center
08:18PM 37.0564 -78.1892 32° Northeast 484 557 27,000  Level Washington Center
08:19PM 37.1694 -78.1644 10° North 449 517 27,000  Level Washington Center
08:20PM 37.2967 -78.1739 357° North 449 517 27,000  Level Washington Center
08:21PM 37.4206 -78.1283 16° North 436 502 27,000 -480 Level Washington Center
08:22PM 37.5183 -78.0425 35° Northeast 418 481 26,100 -1,560 Descending Washington Center
08:23PM 37.6139 -77.9567 35° Northeast 418 481 23,900 -8,100 Descending Washington Center
08:24PM 37.7031 -77.8753 36° Northeast 408 470 10,000 -2,040 Descending Washington Center
08:25PM 37.7900 -77.8017 34° Northeast 391 450 19,900 3,900 Climbing Washington Center
08:26PM 37.8686 -77.7278 37° Northeast 365 420 17,900 -2,340 Descending Washington Center
08:27PM 37.9469 -77.6589 35° Northeast 352 405 15,300 -2,280 Descending Washington Center
08:28PM 38.0231 -77.5897 36° Northeast 341 392 13,400 -1,920 Descending Washington Center
08:29PM 38.0931 -77.5258 36° Northeast 324 373 11,500 -1,680 Descending Washington Center
08:30PM 38.1586 -77.4667 35° Northeast 305 351 10,100 -900 Descending Washington Center
08:31PM 38.2258 -77.4339 21° North 277 319 9,700 -1,020 Descending Washington Center
08:32PM 38.3033 -77.4172 10° North 266 306 8,100 -1,440 Descending Washington Center
08:33PM 38.3764 -77.4033 North 266 306 6,900 -1,200 Descending Washington Center
08:34PM 38.4497 -77.3892 North 261 300 5,700 -900 Descending Washington Center
08:35PM 38.5292 -77.3750 North 267 307 5,100 -360 Descending Washington Center
08:36PM 38.6064 -77.3636 North 277 319 5,000 -120 Descending Washington Center
08:36PM 38.6333 -77.3667 355° North 276 318 5,000 -720 Level Potomac TRACON
08:37PM 38.7000 -77.3667 360° North 287 330 4,100 -480 Descending Potomac TRACON
08:38PM 38.7833 -77.3500 North 290 334 4,100  Level Potomac TRACON
08:39PM 38.8667 -77.3500 360° North 286 329 4,100 -480 Level Potomac TRACON
08:40PM 38.9500 -77.3500 360° North 261 300 3,200 -540 Descending Potomac TRACON
08:41PM 39.0167 -77.3500 360° North 253 291 3,100 -60 Descending Potomac TRACON
08:42PM 39.1000 -77.3500 360° North 255 293 3,100  Level Potomac TRACON
08:43PM 39.1500 -77.3500 360° North 246 283 3,100  Level Potomac TRACON
08:44PM 39.1333 -77.4000 247° West 192 221 3,100 -240 Level Potomac TRACON
08:45PM 39.0833 -77.4167 195° South 164 189 2,700 -600 Descending Potomac TRACON
08:46PM 39.0500 -77.4333 201° Southwest 148 170 2,000 -660 Descending Potomac TRACON
08:47PM 39.0000 -77.4333 180° South 118 136 1,400 -600 Descending Potomac TRACON
08:48PM 38.9833 -77.4333 180° South 122 140 800 -600 Descending Potomac TRACON
08:50PM 38.9474 -77.4599 195° South  Level Estimated
08:57PM 38.9474 -77.4599 195° South  Level Estimated
08:58PM 38.9474 -77.4599 195° South  Level Estimated
08:59PM 38.9474 -77.4599 195° South  Level Estimated
09:00PM 38.9474 -77.4599 195° South  Level Estimated
09:01PM 38.9474 -77.4599 195° South  Level Estimated
09:02PM 38.9474 -77.4599 195° South  Level Estimated